sensor_id;sensor_type;location;lat;lon;timestamp;pressure;altitude;pressure_sealevel;temperature;humidity
75006;BME280;63553;51.814;4.600;2023-02-15T00:01:10;103052.63;;;13.35;83.08
75006;BME280;63553;51.814;4.600;2023-02-15T00:03:36;103060.72;;;13.37;83.23
75006;BME280;63553;51.814;4.600;2023-02-15T00:06:02;103051.25;;;13.33;83.03
75006;BME280;63553;51.814;4.600;2023-02-15T00:08:27;103061.28;;;13.34;83.19
75006;BME280;63553;51.814;4.600;2023-02-15T00:10:53;103056.28;;;13.31;83.42
75006;BME280;63553;51.814;4.600;2023-02-15T00:13:18;103049.84;;;13.30;83.30
75006;BME280;63553;51.814;4.600;2023-02-15T00:15:44;103043.72;;;13.28;83.29
75006;BME280;63553;51.814;4.600;2023-02-15T00:18:09;103037.59;;;13.26;83.28
75006;BME280;63553;51.814;4.600;2023-02-15T00:20:34;103037.59;;;13.26;83.34
75006;BME280;63553;51.814;4.600;2023-02-15T00:23:00;103035.91;;;13.25;83.21
75006;BME280;63553;51.814;4.600;2023-02-15T00:25:25;103029.78;;;13.23;83.51
75006;BME280;63553;51.814;4.600;2023-02-15T00:27:50;103029.50;;;13.20;83.27
75006;BME280;63553;51.814;4.600;2023-02-15T00:30:16;103030.06;;;13.22;83.08
75006;BME280;63553;51.814;4.600;2023-02-15T00:32:41;103026.72;;;13.20;83.30
75006;BME280;63553;51.814;4.600;2023-02-15T00:35:07;103032.31;;;13.20;83.39
75006;BME280;63553;51.814;4.600;2023-02-15T00:37:34;103037.34;;;13.18;83.52
75006;BME280;63553;51.814;4.600;2023-02-15T00:39:59;103032.03;;;13.16;83.64
75006;BME280;63553;51.814;4.600;2023-02-15T00:42:25;103025.06;;;13.14;83.46
75006;BME280;63553;51.814;4.600;2023-02-15T00:44:50;103021.44;;;13.13;83.60
75006;BME280;63553;51.814;4.600;2023-02-15T00:47:15;103022.56;;;13.12;83.52
75006;BME280;63553;51.814;4.600;2023-02-15T00:49:41;103023.16;;;13.09;83.58
75006;BME280;63553;51.814;4.600;2023-02-15T00:52:06;103018.91;;;13.07;83.60
75006;BME280;63553;51.814;4.600;2023-02-15T00:54:31;103019.53;;;13.09;83.73
75006;BME280;63553;51.814;4.600;2023-02-15T00:56:57;103013.63;;;13.05;83.73
75006;BME280;63553;51.814;4.600;2023-02-15T00:59:22;103020.91;;;13.06;83.74
75006;BME280;63553;51.814;4.600;2023-02-15T01:01:47;103024.81;;;13.05;83.88
75006;BME280;63553;51.814;4.600;2023-02-15T01:04:13;103016.69;;;13.04;83.76
75006;BME280;63553;51.814;4.600;2023-02-15T01:06:38;103023.41;;;13.03;83.87
75006;BME280;63553;51.814;4.600;2023-02-15T01:09:03;103010.03;;;13.00;83.64
75006;BME280;63553;51.814;4.600;2023-02-15T01:11:29;103010.03;;;13.00;83.69
75006;BME280;63553;51.814;4.600;2023-02-15T01:13:56;103008.34;;;12.99;83.54
75006;BME280;63553;51.814;4.600;2023-02-15T01:16:23;103005.84;;;12.97;83.50
75006;BME280;63553;51.814;4.600;2023-02-15T01:18:49;103005.00;;;12.97;83.50
75006;BME280;63553;51.814;4.600;2023-02-15T01:21:18;103008.34;;;12.99;83.86
75006;BME280;63553;51.814;4.600;2023-02-15T01:23:44;103000.28;;;12.97;83.76
75006;BME280;63553;51.814;4.600;2023-02-15T01:26:09;102994.97;;;12.96;83.88
75006;BME280;63553;51.814;4.600;2023-02-15T01:28:35;102994.97;;;12.96;83.65
75006;BME280;63553;51.814;4.600;2023-02-15T01:31:13;102996.38;;;12.93;83.93
75006;BME280;63553;51.814;4.600;2023-02-15T01:33:38;102991.09;;;12.92;83.63
75006;BME280;63553;51.814;4.600;2023-02-15T01:36:04;102989.66;;;12.89;83.46
75006;BME280;63553;51.814;4.600;2023-02-15T01:38:30;102985.78;;;12.90;83.41
75006;BME280;63553;51.814;4.600;2023-02-15T01:40:56;102985.22;;;12.88;83.49
75006;BME280;63553;51.814;4.600;2023-02-15T01:43:47;102991.66;;;12.89;83.58
75006;BME280;63553;51.814;4.600;2023-02-15T01:46:15;102988.03;;;12.88;83.48
75006;BME280;63553;51.814;4.600;2023-02-15T01:48:51;102982.16;;;12.85;83.59
75006;BME280;63553;51.814;4.600;2023-02-15T01:51:20;102979.38;;;12.85;83.43
75006;BME280;63553;51.814;4.600;2023-02-15T01:53:53;102977.41;;;12.85;83.60
75006;BME280;63553;51.814;4.600;2023-02-15T01:56:25;102983.84;;;12.86;83.43
75006;BME280;63553;51.814;4.600;2023-02-15T01:58:53;102974.06;;;12.83;83.54
75006;BME280;63553;51.814;4.600;2023-02-15T02:01:20;102976.03;;;12.82;83.44
75006;BME280;63553;51.814;4.600;2023-02-15T02:06:31;102972.13;;;12.78;83.33
75006;BME280;63553;51.814;4.600;2023-02-15T02:08:57;102970.72;;;12.81;83.38
75006;BME280;63553;51.814;4.600;2023-02-15T02:11:23;102964.88;;;12.77;83.46
75006;BME280;63553;51.814;4.600;2023-02-15T02:13:50;102955.38;;;12.78;83.68
75006;BME280;63553;51.814;4.600;2023-02-15T02:16:22;102948.13;;;12.77;83.35
75006;BME280;63553;51.814;4.600;2023-02-15T02:27:22;102942.28;;;12.74;83.47
75006;BME280;63553;51.814;4.600;2023-02-15T02:30:02;102942.28;;;12.74;83.45
75006;BME280;63553;51.814;4.600;2023-02-15T02:32:52;102937.00;;;12.72;83.75
75006;BME280;63553;51.814;4.600;2023-02-15T02:35:30;102937.00;;;12.72;83.20
75006;BME280;63553;51.814;4.600;2023-02-15T02:38:14;102925.28;;;12.70;83.73
75006;BME280;63553;51.814;4.600;2023-02-15T02:45:54;102915.81;;;12.66;83.73
75006;BME280;63553;51.814;4.600;2023-02-15T02:48:25;102917.50;;;12.67;83.34
75006;BME280;63553;51.814;4.600;2023-02-15T02:50:51;102917.75;;;12.66;83.08
75006;BME280;63553;51.814;4.600;2023-02-15T02:53:17;102911.63;;;12.64;83.64
75006;BME280;63553;51.814;4.600;2023-02-15T02:55:44;102909.69;;;12.64;83.30
75006;BME280;63553;51.814;4.600;2023-02-15T02:58:21;102907.16;;;12.63;83.54
75006;BME280;63553;51.814;4.600;2023-02-15T03:00:56;102914.69;;;12.62;83.30
75006;BME280;63553;51.814;4.600;2023-02-15T03:05:54;102906.31;;;12.62;83.31
75006;BME280;63553;51.814;4.600;2023-02-15T03:08:23;102906.63;;;12.61;83.49
75006;BME280;63553;51.814;4.600;2023-02-15T03:10:54;102904.94;;;12.60;83.18
75006;BME280;63553;51.814;4.600;2023-02-15T03:13:21;102905.25;;;12.58;83.15
75006;BME280;63553;51.814;4.600;2023-02-15T03:15:48;102906.34;;;12.57;83.41
75006;BME280;63553;51.814;4.600;2023-02-15T03:18:37;102903.03;;;12.55;83.18
75006;BME280;63553;51.814;4.600;2023-02-15T03:21:05;102893.50;;;12.56;83.31
75006;BME280;63553;51.814;4.600;2023-02-15T03:23:32;102894.66;;;12.55;83.04
75006;BME280;63553;51.814;4.600;2023-02-15T03:26:05;102896.59;;;12.55;83.54
75006;BME280;63553;51.814;4.600;2023-02-15T03:28:38;102892.97;;;12.54;83.20
75006;BME280;63553;51.814;4.600;2023-02-15T03:31:07;102886.00;;;12.52;83.34
75006;BME280;63553;51.814;4.600;2023-02-15T03:33:36;102891.59;;;12.52;83.20
75006;BME280;63553;51.814;4.600;2023-02-15T03:38:49;102884.06;;;12.47;83.54
75006;BME280;63553;51.814;4.600;2023-02-15T03:41:19;102885.19;;;12.46;83.17
75006;BME280;63553;51.814;4.600;2023-02-15T03:44:29;102883.25;;;12.47;83.78
75006;BME280;63553;51.814;4.600;2023-02-15T03:47:04;102881.56;;;12.46;83.43
75006;BME280;63553;51.814;4.600;2023-02-15T03:52:13;102869.03;;;12.43;83.38
75006;BME280;63553;51.814;4.600;2023-02-15T03:54:40;102878.78;;;12.46;83.19
75006;BME280;63553;51.814;4.600;2023-02-15T03:57:20;102865.94;;;12.45;83.04
75006;BME280;63553;51.814;4.600;2023-02-15T04:00:17;102867.34;;;12.42;83.32
75006;BME280;63553;51.814;4.600;2023-02-15T04:05:27;102855.66;;;12.40;83.60
75006;BME280;63553;51.814;4.600;2023-02-15T04:07:52;102852.88;;;12.40;83.48
75006;BME280;63553;51.814;4.600;2023-02-15T04:10:17;102848.94;;;12.41;83.58
75006;BME280;63553;51.814;4.600;2023-02-15T04:13:01;102861.22;;;12.40;83.35
75006;BME280;63553;51.814;4.600;2023-02-15T04:15:26;102856.50;;;12.41;83.50
75006;BME280;63553;51.814;4.600;2023-02-15T04:18:10;102855.13;;;12.38;83.58
75006;BME280;63553;51.814;4.600;2023-02-15T04:20:36;102854.28;;;12.38;83.39
75006;BME280;63553;51.814;4.600;2023-02-15T04:23:19;102843.38;;;12.36;83.29
75006;BME280;63553;51.814;4.600;2023-02-15T04:26:04;102847.03;;;12.37;83.46
75006;BME280;63553;51.814;4.600;2023-02-15T04:28:30;102853.72;;;12.36;83.42
75006;BME280;63553;51.814;4.600;2023-02-15T04:30:55;102841.16;;;12.33;83.19
75006;BME280;63553;51.814;4.600;2023-02-15T04:33:21;102846.75;;;12.33;83.33
75006;BME280;63553;51.814;4.600;2023-02-15T04:35:46;102853.47;;;12.32;83.34
75006;BME280;63553;51.814;4.600;2023-02-15T04:38:11;102850.69;;;12.32;83.38
75006;BME280;63553;51.814;4.600;2023-02-15T04:40:37;102844.25;;;12.32;83.38
75006;BME280;63553;51.814;4.600;2023-02-15T04:43:02;102851.47;;;12.33;83.59
75006;BME280;63553;51.814;4.600;2023-02-15T04:45:27;102845.66;;;12.29;83.69
75006;BME280;63553;51.814;4.600;2023-02-15T04:47:53;102850.94;;;12.31;83.49
75006;BME280;63553;51.814;4.600;2023-02-15T04:50:18;102838.94;;;12.30;83.52
75006;BME280;63553;51.814;4.600;2023-02-15T04:52:43;102847.88;;;12.27;83.48
75006;BME280;63553;51.814;4.600;2023-02-15T04:55:09;102845.09;;;12.27;83.41
75006;BME280;63553;51.814;4.600;2023-02-15T04:57:34;102837.88;;;12.26;83.47
75006;BME280;63553;51.814;4.600;2023-02-15T04:59:59;102837.88;;;12.26;83.76
75006;BME280;63553;51.814;4.600;2023-02-15T05:02:25;102846.50;;;12.24;83.60
75006;BME280;63553;51.814;4.600;2023-02-15T05:04:50;102841.78;;;12.25;83.46
75006;BME280;63553;51.814;4.600;2023-02-15T05:07:15;102840.66;;;12.26;83.33
75006;BME280;63553;51.814;4.600;2023-02-15T05:09:41;102838.13;;;12.24;83.79
75006;BME280;63553;51.814;4.600;2023-02-15T05:12:06;102838.13;;;12.24;83.76
75006;BME280;63553;51.814;4.600;2023-02-15T05:14:32;102836.75;;;12.22;83.42
75006;BME280;63553;51.814;4.600;2023-02-15T05:16:57;102827.84;;;12.20;83.49
75006;BME280;63553;51.814;4.600;2023-02-15T05:19:25;102821.97;;;12.21;83.67
75006;BME280;63553;51.814;4.600;2023-02-15T05:21:51;102815.00;;;12.19;83.44
75006;BME280;63553;51.814;4.600;2023-02-15T05:24:16;102807.19;;;12.21;83.38
75006;BME280;63553;51.814;4.600;2023-02-15T05:27:00;102815.56;;;12.21;83.21
75006;BME280;63553;51.814;4.600;2023-02-15T05:29:44;102814.19;;;12.18;83.07
75006;BME280;63553;51.814;4.600;2023-02-15T05:32:12;102812.22;;;12.19;83.51
75006;BME280;63553;51.814;4.600;2023-02-15T05:34:38;102808.59;;;12.18;83.72
75006;BME280;63553;51.814;4.600;2023-02-15T05:37:03;102802.22;;;12.13;83.18
75006;BME280;63553;51.814;4.600;2023-02-15T05:39:28;102801.09;;;12.14;82.90
75006;BME280;63553;51.814;4.600;2023-02-15T05:41:54;102797.75;;;12.12;82.78
75006;BME280;63553;51.814;4.600;2023-02-15T05:44:19;102793.00;;;12.12;83.05
75006;BME280;63553;51.814;4.600;2023-02-15T05:46:44;102804.16;;;12.12;83.17
75006;BME280;63553;51.814;4.600;2023-02-15T05:49:09;102792.16;;;12.12;82.96
75006;BME280;63553;51.814;4.600;2023-02-15T05:51:35;102788.84;;;12.10;83.32
75006;BME280;63553;51.814;4.600;2023-02-15T05:54:00;102789.69;;;12.10;83.50
75006;BME280;63553;51.814;4.600;2023-02-15T05:56:25;102787.41;;;12.17;82.86
75006;BME280;63553;51.814;4.600;2023-02-15T05:58:52;102792.66;;;12.29;82.27
75006;BME280;63553;51.814;4.600;2023-02-15T06:01:18;102791.19;;;12.42;83.03
75006;BME280;63553;51.814;4.600;2023-02-15T06:03:46;102788.16;;;12.38;81.92
75006;BME280;63553;51.814;4.600;2023-02-15T06:06:11;102790.34;;;12.46;82.48
75006;BME280;63553;51.814;4.600;2023-02-15T06:08:37;102790.88;;;12.48;82.30
75006;BME280;63553;51.814;4.600;2023-02-15T06:11:04;102794.25;;;12.45;81.02
75006;BME280;63553;51.814;4.600;2023-02-15T06:13:30;102800.41;;;12.42;79.89
75006;BME280;63553;51.814;4.600;2023-02-15T06:15:55;102794.56;;;12.39;79.35
75006;BME280;63553;51.814;4.600;2023-02-15T06:18:21;102794.00;;;12.37;79.41
75006;BME280;63553;51.814;4.600;2023-02-15T06:20:46;102799.63;;;12.32;79.47
75006;BME280;63553;51.814;4.600;2023-02-15T06:23:12;102794.06;;;12.26;78.84
75006;BME280;63553;51.814;4.600;2023-02-15T06:25:37;102797.72;;;12.22;78.42
75006;BME280;63553;51.814;4.600;2023-02-15T06:28:03;102796.06;;;12.16;78.89
75006;BME280;63553;51.814;4.600;2023-02-15T06:30:28;102793.31;;;12.11;78.59
75006;BME280;63553;51.814;4.600;2023-02-15T06:32:53;102797.50;;;12.08;79.02
75006;BME280;63553;51.814;4.600;2023-02-15T06:35:19;102793.31;;;12.06;78.74
75006;BME280;63553;51.814;4.600;2023-02-15T06:37:45;102789.13;;;12.03;78.78
75006;BME280;63553;51.814;4.600;2023-02-15T06:40:11;102791.66;;;12.05;78.86
75006;BME280;63553;51.814;4.600;2023-02-15T06:42:37;102791.09;;;12.03;78.33
75006;BME280;63553;51.814;4.600;2023-02-15T06:45:03;102791.66;;;12.05;78.31
75006;BME280;63553;51.814;4.600;2023-02-15T06:47:28;102789.97;;;12.04;78.10
75006;BME280;63553;51.814;4.600;2023-02-15T06:49:54;102791.66;;;12.05;78.30
75006;BME280;63553;51.814;4.600;2023-02-15T06:52:19;102790.81;;;12.04;78.40
75006;BME280;63553;51.814;4.600;2023-02-15T06:54:45;102790.50;;;12.06;78.05
75006;BME280;63553;51.814;4.600;2023-02-15T06:57:10;102796.41;;;12.04;78.50
75006;BME280;63553;51.814;4.600;2023-02-15T06:59:36;102798.06;;;12.00;77.81
75006;BME280;63553;51.814;4.600;2023-02-15T07:02:01;102790.28;;;11.97;78.17
75006;BME280;63553;51.814;4.600;2023-02-15T07:04:26;102790.31;;;11.92;77.72
75006;BME280;63553;51.814;4.600;2023-02-15T07:06:53;102786.13;;;11.90;77.78
75006;BME280;63553;51.814;4.600;2023-02-15T07:09:19;102781.13;;;11.87;77.84
75006;BME280;63553;51.814;4.600;2023-02-15T07:11:44;102787.25;;;11.89;77.56
75006;BME280;63553;51.814;4.600;2023-02-15T07:14:28;102788.38;;;11.88;77.75
75006;BME280;63553;51.814;4.600;2023-02-15T07:16:53;102786.41;;;11.88;77.71
75006;BME280;63553;51.814;4.600;2023-02-15T07:19:19;102783.63;;;11.83;77.65
75006;BME280;63553;51.814;4.600;2023-02-15T07:21:44;102788.38;;;11.88;77.53
75006;BME280;63553;51.814;4.600;2023-02-15T07:24:10;102777.78;;;11.90;77.38
75006;BME280;63553;51.814;4.600;2023-02-15T07:26:35;102778.28;;;11.97;77.32
75006;BME280;63553;51.814;4.600;2023-02-15T07:29:01;102784.69;;;11.97;77.27
75006;BME280;63553;51.814;4.600;2023-02-15T07:31:26;102780.50;;;12.00;77.17
75006;BME280;63553;51.814;4.600;2023-02-15T07:33:52;102774.94;;;12.05;77.00
75006;BME280;63553;51.814;4.600;2023-02-15T07:36:17;102772.09;;;12.10;76.66
75006;BME280;63553;51.814;4.600;2023-02-15T07:38:42;102774.59;;;12.16;76.58
75006;BME280;63553;51.814;4.600;2023-02-15T07:41:13;102775.97;;;12.19;76.78
75006;BME280;63553;51.814;4.600;2023-02-15T07:43:41;102774.56;;;12.21;76.48
75006;BME280;63553;51.814;4.600;2023-02-15T07:46:13;102764.25;;;12.22;76.71
75006;BME280;63553;51.814;4.600;2023-02-15T07:48:40;102765.88;;;12.28;76.60
75006;BME280;63553;51.814;4.600;2023-02-15T07:51:07;102760.84;;;12.30;76.50
75006;BME280;63553;51.814;4.600;2023-02-15T07:53:33;102751.81;;;12.48;77.42
75006;BME280;63553;51.814;4.600;2023-02-15T07:56:00;102756.25;;;12.54;77.15
75006;BME280;63553;51.814;4.600;2023-02-15T07:58:25;102767.94;;;12.61;75.84
75006;BME280;63553;51.814;4.600;2023-02-15T08:01:13;102767.72;;;12.87;77.47
75006;BME280;63553;51.814;4.600;2023-02-15T08:03:39;102756.78;;;12.95;82.10
75006;BME280;63553;51.814;4.600;2023-02-15T08:06:05;102764.28;;;13.00;78.72
75006;BME280;63553;51.814;4.600;2023-02-15T08:08:34;102753.59;;;13.07;78.29
75006;BME280;63553;51.814;4.600;2023-02-15T08:11:05;102770.47;;;13.30;77.18
75006;BME280;63553;51.814;4.600;2023-02-15T08:13:51;102765.88;;;13.45;76.11
75006;BME280;63553;51.814;4.600;2023-02-15T08:19:18;102760.91;;;13.89;75.13
75006;BME280;63553;51.814;4.600;2023-02-15T08:21:45;102746.34;;;14.11;73.50
75006;BME280;63553;51.814;4.600;2023-02-15T08:24:13;102747.88;;;14.45;86.96
75006;BME280;63553;51.814;4.600;2023-02-15T08:26:39;102751.50;;;14.46;81.62
75006;BME280;63553;51.814;4.600;2023-02-15T08:29:05;102748.06;;;14.49;77.66
75006;BME280;63553;51.814;4.600;2023-02-15T08:31:33;102742.94;;;14.56;77.56
75006;BME280;63553;51.814;4.600;2023-02-15T08:33:58;102739.44;;;14.64;77.40
75006;BME280;63553;51.814;4.600;2023-02-15T08:36:27;102740.97;;;14.75;76.84
75006;BME280;63553;51.814;4.600;2023-02-15T08:38:52;102736.66;;;14.83;75.40
75006;BME280;63553;51.814;4.600;2023-02-15T08:43:45;102733.63;;;15.12;75.36
75006;BME280;63553;51.814;4.600;2023-02-15T08:46:15;102738.13;;;15.26;75.59
75006;BME280;63553;51.814;4.600;2023-02-15T08:48:44;102731.50;;;15.36;75.27
75006;BME280;63553;51.814;4.600;2023-02-15T08:51:14;102740.41;;;15.56;74.02
75006;BME280;63553;51.814;4.600;2023-02-15T08:53:43;102750.19;;;15.86;73.87
75006;BME280;63553;51.814;4.600;2023-02-15T08:56:09;102732.72;;;16.03;73.40
75006;BME280;63553;51.814;4.600;2023-02-15T08:58:35;102733.53;;;16.17;72.74
75006;BME280;63553;51.814;4.600;2023-02-15T09:01:07;102741.28;;;16.34;74.23
75006;BME280;63553;51.814;4.600;2023-02-15T09:03:32;102736.59;;;16.56;74.61
75006;BME280;63553;51.814;4.600;2023-02-15T09:06:00;102734.66;;;16.79;72.22
75006;BME280;63553;51.814;4.600;2023-02-15T09:08:29;102742.63;;;16.86;70.76
75006;BME280;63553;51.814;4.600;2023-02-15T09:11:11;102742.44;;;16.82;74.35
75006;BME280;63553;51.814;4.600;2023-02-15T09:13:37;102738.41;;;16.75;74.13
75006;BME280;63553;51.814;4.600;2023-02-15T09:16:05;102732.28;;;16.73;72.71
75006;BME280;63553;51.814;4.600;2023-02-15T09:18:33;102737.19;;;16.67;74.12
75006;BME280;63553;51.814;4.600;2023-02-15T09:21:06;102742.31;;;16.65;75.43
75006;BME280;63553;51.814;4.600;2023-02-15T09:23:32;102738.44;;;16.61;74.62
75006;BME280;63553;51.814;4.600;2023-02-15T09:26:02;102726.28;;;16.52;74.39
75006;BME280;63553;51.814;4.600;2023-02-15T09:28:28;102728.06;;;16.61;75.63
75006;BME280;63553;51.814;4.600;2023-02-15T09:30:53;102721.38;;;16.71;71.05
75006;BME280;63553;51.814;4.600;2023-02-15T09:33:19;102729.34;;;17.00;70.74
75006;BME280;63553;51.814;4.600;2023-02-15T09:35:44;102732.97;;;17.22;70.38
75006;BME280;63553;51.814;4.600;2023-02-15T09:38:10;102726.75;;;17.34;70.11
75006;BME280;63553;51.814;4.600;2023-02-15T09:40:43;102731.44;;;17.47;69.96
75006;BME280;63553;51.814;4.600;2023-02-15T09:49:52;102739.00;;;17.60;68.10
75006;BME280;63553;51.814;4.600;2023-02-15T09:55:24;102728.78;;;17.42;69.89
75006;BME280;63553;51.814;4.600;2023-02-15T10:00:39;102740.72;;;17.48;69.59
75006;BME280;63553;51.814;4.600;2023-02-15T10:05:42;102750.41;;;17.33;70.45
75006;BME280;63553;51.814;4.600;2023-02-15T10:17:03;102744.28;;;16.64;70.45
75006;BME280;63553;51.814;4.600;2023-02-15T10:27:45;102733.78;;;16.43;73.43
75006;BME280;63553;51.814;4.600;2023-02-15T10:30:41;102742.75;;;16.45;72.68
75006;BME280;63553;51.814;4.600;2023-02-15T10:33:39;102737.75;;;16.42;73.12
75006;BME280;63553;51.814;4.600;2023-02-15T10:47:15;102726.09;;;16.62;71.54
75006;BME280;63553;51.814;4.600;2023-02-15T10:52:33;102719.94;;;16.60;71.35
75006;BME280;63553;51.814;4.600;2023-02-15T10:58:28;102713.03;;;16.66;71.54
75006;BME280;63553;51.814;4.600;2023-02-15T11:04:14;102706.00;;;16.55;70.82
75006;BME280;63553;51.814;4.600;2023-02-15T11:06:53;102700.00;;;16.48;70.38
75006;BME280;63553;51.814;4.600;2023-02-15T11:09:21;102691.28;;;16.36;69.99
75006;BME280;63553;51.814;4.600;2023-02-15T11:11:52;102692.56;;;16.30;70.31
75006;BME280;63553;51.814;4.600;2023-02-15T11:17:25;102697.69;;;16.14;69.78
75006;BME280;63553;51.814;4.600;2023-02-15T11:20:05;102692.19;;;16.09;70.20
75006;BME280;63553;51.814;4.600;2023-02-15T11:22:34;102696.56;;;16.01;69.15
75006;BME280;63553;51.814;4.600;2023-02-15T11:25:01;102702.78;;;15.98;68.63
75006;BME280;63553;51.814;4.600;2023-02-15T11:27:31;102700.31;;;15.97;68.43
75006;BME280;63553;51.814;4.600;2023-02-15T11:30:12;102692.81;;;15.92;68.50
75006;BME280;63553;51.814;4.600;2023-02-15T11:32:49;102689.19;;;15.92;70.23
75006;BME280;63553;51.814;4.600;2023-02-15T11:35:37;102691.59;;;15.85;69.64
75006;BME280;63553;51.814;4.600;2023-02-15T11:38:27;102696.16;;;15.81;70.53
75006;BME280;63553;51.814;4.600;2023-02-15T11:41:04;102680.28;;;15.76;69.41
75006;BME280;63553;51.814;4.600;2023-02-15T11:45:56;102659.31;;;15.74;70.83
75006;BME280;63553;51.814;4.600;2023-02-15T11:48:22;102645.06;;;15.70;70.28
75006;BME280;63553;51.814;4.600;2023-02-15T11:50:48;102648.50;;;15.67;69.63
75006;BME280;63553;51.814;4.600;2023-02-15T11:53:21;102653.78;;;15.69;69.66
75006;BME280;63553;51.814;4.600;2023-02-15T11:55:50;102648.72;;;15.71;70.41
75006;BME280;63553;51.814;4.600;2023-02-15T11:58:28;102642.06;;;15.67;70.74
75006;BME280;63553;51.814;4.600;2023-02-15T12:01:03;102655.88;;;15.63;69.67
75006;BME280;63553;51.814;4.600;2023-02-15T12:06:02;102639.66;;;15.60;70.77
75006;BME280;63553;51.814;4.600;2023-02-15T12:08:38;102642.47;;;15.60;70.53
75006;BME280;63553;51.814;4.600;2023-02-15T12:11:25;102632.84;;;15.52;71.50
75006;BME280;63553;51.814;4.600;2023-02-15T12:13:59;102641.53;;;15.51;71.04
75006;BME280;63553;51.814;4.600;2023-02-15T12:16:27;102631.78;;;15.48;69.91
75006;BME280;63553;51.814;4.600;2023-02-15T12:19:00;102627.91;;;15.44;71.45
75006;BME280;63553;51.814;4.600;2023-02-15T12:23:57;102624.91;;;15.41;69.90
75006;BME280;63553;51.814;4.600;2023-02-15T12:26:34;102635.28;;;15.40;68.83
75006;BME280;63553;51.814;4.600;2023-02-15T12:29:15;102632.06;;;15.33;68.75
75006;BME280;63553;51.814;4.600;2023-02-15T12:31:45;102642.97;;;15.35;69.44
75006;BME280;63553;51.814;4.600;2023-02-15T12:34:19;102650.00;;;15.32;68.83
75006;BME280;63553;51.814;4.600;2023-02-15T12:36:49;102642.75;;;15.31;69.72
75006;BME280;63553;51.814;4.600;2023-02-15T12:39:21;102642.53;;;15.28;69.97
75006;BME280;63553;51.814;4.600;2023-02-15T12:44:22;102643.06;;;15.30;68.60
75006;BME280;63553;51.814;4.600;2023-02-15T12:46:56;102639.13;;;15.31;69.61
75006;BME280;63553;51.814;4.600;2023-02-15T12:49:22;102626.56;;;15.28;69.55
75006;BME280;63553;51.814;4.600;2023-02-15T12:51:51;102624.28;;;15.30;69.88
75006;BME280;63553;51.814;4.600;2023-02-15T12:54:41;102619.28;;;15.27;69.53
75006;BME280;63553;51.814;4.600;2023-02-15T12:59:48;102619.28;;;15.27;69.71
75006;BME280;63553;51.814;4.600;2023-02-15T13:02:21;102619.41;;;15.22;70.68
75006;BME280;63553;51.814;4.600;2023-02-15T13:04:48;102602.16;;;15.15;70.64
75006;BME280;63553;51.814;4.600;2023-02-15T13:07:14;102612.75;;;15.18;70.13
75006;BME280;63553;51.814;4.600;2023-02-15T13:09:40;102617.50;;;15.18;69.44
75006;BME280;63553;51.814;4.600;2023-02-15T13:12:15;102620.84;;;15.20;68.89
75006;BME280;63553;51.814;4.600;2023-02-15T13:14:46;102619.19;;;15.19;70.00
75006;BME280;63553;51.814;4.600;2023-02-15T13:17:15;102614.19;;;15.16;69.81
75006;BME280;63553;51.814;4.600;2023-02-15T13:19:49;102612.75;;;15.18;70.84
75006;BME280;63553;51.814;4.600;2023-02-15T13:22:22;102615.88;;;15.17;71.28
75006;BME280;63553;51.814;4.600;2023-02-15T13:24:54;102612.22;;;15.16;70.70
75006;BME280;63553;51.814;4.600;2023-02-15T13:27:23;102606.13;;;15.14;69.76
75006;BME280;63553;51.814;4.600;2023-02-15T13:29:58;102605.78;;;15.16;69.85
75006;BME280;63553;51.814;4.600;2023-02-15T13:34:58;102601.28;;;14.04;61.78
75006;BME280;63553;51.814;4.600;2023-02-15T13:40:13;102608.09;;;13.98;69.48
75006;BME280;63553;51.814;4.600;2023-02-15T13:45:36;102593.25;;;13.79;69.84
75006;BME280;63553;51.814;4.600;2023-02-15T13:48:59;102596.06;;;13.36;59.73
75006;BME280;63553;51.814;4.600;2023-02-15T13:57:31;102575.91;;;12.63;59.37
75006;BME280;63553;51.814;4.600;2023-02-15T14:02:53;102581.78;;;12.91;64.24
75006;BME280;63553;51.814;4.600;2023-02-15T14:08:19;102577.31;;;13.79;69.14
75006;BME280;63553;51.814;4.600;2023-02-15T14:11:01;102579.16;;;12.75;58.86
75006;BME280;63553;51.814;4.600;2023-02-15T14:18:58;102576.88;;;12.77;64.98
75006;BME280;63553;51.814;4.600;2023-02-15T14:21:34;102575.59;;;12.94;64.23
75006;BME280;63553;51.814;4.600;2023-02-15T14:26:52;102585.59;;;12.42;60.95
75006;BME280;63553;51.814;4.600;2023-02-15T14:34:57;102580.00;;;13.00;61.84
75006;BME280;63553;51.814;4.600;2023-02-15T14:37:41;102584.72;;;12.47;61.94
75006;BME280;63553;51.814;4.600;2023-02-15T14:43:24;102584.44;;;13.01;67.66
75006;BME280;63553;51.814;4.600;2023-02-15T14:46:00;102588.00;;;12.54;68.59
75006;BME280;63553;51.814;4.600;2023-02-15T14:48:31;102585.44;;;13.39;71.83
75006;BME280;63553;51.814;4.600;2023-02-15T14:50:58;102585.28;;;13.30;63.48
75006;BME280;63553;51.814;4.600;2023-02-15T14:56:05;102577.59;;;13.78;71.65
75006;BME280;63553;51.814;4.600;2023-02-15T14:58:32;102575.50;;;13.27;68.22
75006;BME280;63553;51.814;4.600;2023-02-15T15:01:07;102584.13;;;13.92;71.30
75006;BME280;63553;51.814;4.600;2023-02-15T15:03:32;102575.47;;;13.51;66.05
75006;BME280;63553;51.814;4.600;2023-02-15T15:06:02;102572.66;;;13.51;69.73
75006;BME280;63553;51.814;4.600;2023-02-15T15:08:38;102572.59;;;13.38;69.00
75006;BME280;63553;51.814;4.600;2023-02-15T15:14:01;102567.31;;;13.55;68.51
75006;BME280;63553;51.814;4.600;2023-02-15T15:18:55;102578.75;;;12.58;62.70
75006;BME280;63553;51.814;4.600;2023-02-15T15:30:02;102571.84;;;12.79;68.25
75006;BME280;63553;51.814;4.600;2023-02-15T15:32:33;102569.53;;;13.15;69.48
75006;BME280;63553;51.814;4.600;2023-02-15T15:38:05;102577.16;;;12.47;66.80
75006;BME280;63553;51.814;4.600;2023-02-15T15:49:19;102563.19;;;11.26;66.11